sensor_id;sensor_type;location;lat;lon;timestamp;P1;durP1;ratioP1;P2;durP2;ratioP2
12896;SDS011;6516;35.028;32.372;2024-03-06T00:01:16;11.25;;;1.63;;
12896;SDS011;6516;35.028;32.372;2024-03-06T00:03:44;12.63;;;1.63;;
12896;SDS011;6516;35.028;32.372;2024-03-06T00:06:12;10.82;;;1.50;;
12896;SDS011;6516;35.028;32.372;2024-03-06T00:08:40;12.70;;;1.67;;
12896;SDS011;6516;35.028;32.372;2024-03-06T00:11:07;8.80;;;1.30;;
12896;SDS011;6516;35.028;32.372;2024-03-06T00:13:35;18.73;;;1.98;;
12896;SDS011;6516;35.028;32.372;2024-03-06T00:16:03;14.00;;;2.43;;
12896;SDS011;6516;35.028;32.372;2024-03-06T00:18:33;16.20;;;1.58;;
12896;SDS011;6516;35.028;32.372;2024-03-06T00:21:00;15.85;;;2.22;;
12896;SDS011;6516;35.028;32.372;2024-03-06T00:23:28;12.73;;;1.83;;
12896;SDS011;6516;35.028;32.372;2024-03-06T00:25:57;14.25;;;2.35;;
12896;SDS011;6516;35.028;32.372;2024-03-06T00:28:24;17.20;;;2.17;;
12896;SDS011;6516;35.028;32.372;2024-03-06T00:30:52;9.85;;;1.60;;
12896;SDS011;6516;35.028;32.372;2024-03-06T00:33:20;17.83;;;1.90;;
12896;SDS011;6516;35.028;32.372;2024-03-06T00:35:49;14.45;;;2.15;;
12896;SDS011;6516;35.028;32.372;2024-03-06T00:38:17;11.63;;;2.20;;
12896;SDS011;6516;35.028;32.372;2024-03-06T00:40:45;13.40;;;1.77;;
12896;SDS011;6516;35.028;32.372;2024-03-06T00:43:12;12.80;;;1.70;;
12896;SDS011;6516;35.028;32.372;2024-03-06T00:45:40;10.43;;;1.25;;
12896;SDS011;6516;35.028;32.372;2024-03-06T00:48:08;10.93;;;1.42;;
12896;SDS011;6516;35.028;32.372;2024-03-06T00:50:36;13.45;;;1.65;;
12896;SDS011;6516;35.028;32.372;2024-03-06T00:53:06;10.60;;;1.60;;
12896;SDS011;6516;35.028;32.372;2024-03-06T00:55:34;13.32;;;1.70;;
12896;SDS011;6516;35.028;32.372;2024-03-06T00:58:02;12.77;;;1.80;;
12896;SDS011;6516;35.028;32.372;2024-03-06T01:00:31;9.90;;;1.58;;
12896;SDS011;6516;35.028;32.372;2024-03-06T01:02:59;10.80;;;2.08;;
12896;SDS011;6516;35.028;32.372;2024-03-06T01:05:27;11.80;;;1.83;;
12896;SDS011;6516;35.028;32.372;2024-03-06T01:07:55;12.55;;;1.63;;
12896;SDS011;6516;35.028;32.372;2024-03-06T01:10:25;14.93;;;2.10;;
12896;SDS011;6516;35.028;32.372;2024-03-06T01:12:53;13.10;;;1.45;;
12896;SDS011;6516;35.028;32.372;2024-03-06T01:15:21;10.20;;;1.30;;
12896;SDS011;6516;35.028;32.372;2024-03-06T01:17:49;9.90;;;1.67;;
12896;SDS011;6516;35.028;32.372;2024-03-06T01:20:17;13.90;;;1.70;;
12896;SDS011;6516;35.028;32.372;2024-03-06T01:22:45;14.45;;;1.88;;
12896;SDS011;6516;35.028;32.372;2024-03-06T01:25:13;11.20;;;1.73;;
12896;SDS011;6516;35.028;32.372;2024-03-06T01:27:42;16.65;;;2.35;;
12896;SDS011;6516;35.028;32.372;2024-03-06T01:30:10;11.53;;;1.50;;
12896;SDS011;6516;35.028;32.372;2024-03-06T01:32:38;9.80;;;1.50;;
12896;SDS011;6516;35.028;32.372;2024-03-06T01:35:06;12.73;;;1.40;;
12896;SDS011;6516;35.028;32.372;2024-03-06T01:37:34;14.68;;;2.00;;
12896;SDS011;6516;35.028;32.372;2024-03-06T01:40:02;13.80;;;1.80;;
12896;SDS011;6516;35.028;32.372;2024-03-06T01:42:32;11.03;;;1.40;;
12896;SDS011;6516;35.028;32.372;2024-03-06T01:45:01;9.38;;;1.60;;
12896;SDS011;6516;35.028;32.372;2024-03-06T01:47:30;8.30;;;1.75;;
12896;SDS011;6516;35.028;32.372;2024-03-06T01:49:58;9.32;;;1.30;;
12896;SDS011;6516;35.028;32.372;2024-03-06T01:52:26;12.63;;;1.50;;
12896;SDS011;6516;35.028;32.372;2024-03-06T01:54:54;12.30;;;1.67;;
12896;SDS011;6516;35.028;32.372;2024-03-06T01:57:23;10.15;;;1.58;;
12896;SDS011;6516;35.028;32.372;2024-03-06T01:59:51;12.02;;;2.30;;
12896;SDS011;6516;35.028;32.372;2024-03-06T02:02:21;11.23;;;1.60;;
12896;SDS011;6516;35.028;32.372;2024-03-06T02:04:49;8.65;;;1.30;;
12896;SDS011;6516;35.028;32.372;2024-03-06T02:07:17;16.07;;;2.27;;
12896;SDS011;6516;35.028;32.372;2024-03-06T02:09:46;13.75;;;1.65;;
12896;SDS011;6516;35.028;32.372;2024-03-06T02:12:15;15.38;;;1.70;;
12896;SDS011;6516;35.028;32.372;2024-03-06T02:14:43;11.43;;;1.65;;
12896;SDS011;6516;35.028;32.372;2024-03-06T02:17:11;7.95;;;1.30;;
12896;SDS011;6516;35.028;32.372;2024-03-06T02:19:41;13.70;;;2.27;;
12896;SDS011;6516;35.028;32.372;2024-03-06T02:22:12;9.35;;;1.30;;
12896;SDS011;6516;35.028;32.372;2024-03-06T02:24:44;14.20;;;1.95;;
12896;SDS011;6516;35.028;32.372;2024-03-06T02:27:15;13.38;;;1.65;;
12896;SDS011;6516;35.028;32.372;2024-03-06T02:29:43;11.88;;;1.75;;
12896;SDS011;6516;35.028;32.372;2024-03-06T02:32:12;12.80;;;1.53;;
12896;SDS011;6516;35.028;32.372;2024-03-06T02:34:40;15.23;;;2.38;;
12896;SDS011;6516;35.028;32.372;2024-03-06T02:37:08;12.02;;;1.63;;
12896;SDS011;6516;35.028;32.372;2024-03-06T02:39:38;12.55;;;1.52;;
12896;SDS011;6516;35.028;32.372;2024-03-06T02:42:05;12.48;;;1.70;;
12896;SDS011;6516;35.028;32.372;2024-03-06T02:44:33;11.20;;;1.30;;
12896;SDS011;6516;35.028;32.372;2024-03-06T02:47:01;18.10;;;1.83;;
12896;SDS011;6516;35.028;32.372;2024-03-06T02:49:29;10.48;;;2.03;;
12896;SDS011;6516;35.028;32.372;2024-03-06T02:51:57;10.52;;;1.60;;
12896;SDS011;6516;35.028;32.372;2024-03-06T02:54:26;15.35;;;1.67;;
12896;SDS011;6516;35.028;32.372;2024-03-06T02:56:58;15.90;;;1.87;;
12896;SDS011;6516;35.028;32.372;2024-03-06T02:59:26;8.05;;;1.77;;
12896;SDS011;6516;35.028;32.372;2024-03-06T03:01:55;12.60;;;1.70;;
12896;SDS011;6516;35.028;32.372;2024-03-06T03:04:23;12.68;;;2.10;;
12896;SDS011;6516;35.028;32.372;2024-03-06T03:06:51;16.50;;;2.88;;
12896;SDS011;6516;35.028;32.372;2024-03-06T03:09:19;14.83;;;2.07;;
12896;SDS011;6516;35.028;32.372;2024-03-06T03:11:48;11.65;;;1.50;;
12896;SDS011;6516;35.028;32.372;2024-03-06T03:14:17;15.23;;;1.85;;
12896;SDS011;6516;35.028;32.372;2024-03-06T03:16:45;12.93;;;1.75;;
12896;SDS011;6516;35.028;32.372;2024-03-06T03:19:13;10.35;;;1.52;;
12896;SDS011;6516;35.028;32.372;2024-03-06T03:21:42;9.83;;;1.73;;
12896;SDS011;6516;35.028;32.372;2024-03-06T03:24:11;12.02;;;1.42;;
12896;SDS011;6516;35.028;32.372;2024-03-06T03:26:39;10.50;;;1.60;;
12896;SDS011;6516;35.028;32.372;2024-03-06T03:29:07;22.67;;;3.25;;
12896;SDS011;6516;35.028;32.372;2024-03-06T03:31:36;15.60;;;2.47;;
12896;SDS011;6516;35.028;32.372;2024-03-06T03:34:05;12.93;;;2.10;;
12896;SDS011;6516;35.028;32.372;2024-03-06T03:36:34;18.58;;;1.88;;
12896;SDS011;6516;35.028;32.372;2024-03-06T03:39:02;18.98;;;2.03;;
12896;SDS011;6516;35.028;32.372;2024-03-06T03:41:30;14.27;;;2.33;;
12896;SDS011;6516;35.028;32.372;2024-03-06T03:43:57;15.05;;;2.05;;
12896;SDS011;6516;35.028;32.372;2024-03-06T03:46:25;14.63;;;1.63;;
12896;SDS011;6516;35.028;32.372;2024-03-06T03:48:54;14.07;;;1.73;;
12896;SDS011;6516;35.028;32.372;2024-03-06T03:51:22;15.68;;;2.35;;
12896;SDS011;6516;35.028;32.372;2024-03-06T03:53:50;11.65;;;2.17;;
12896;SDS011;6516;35.028;32.372;2024-03-06T03:56:18;25.38;;;2.45;;
12896;SDS011;6516;35.028;32.372;2024-03-06T03:58:46;17.20;;;1.80;;
12896;SDS011;6516;35.028;32.372;2024-03-06T04:01:13;17.48;;;2.70;;
12896;SDS011;6516;35.028;32.372;2024-03-06T04:03:41;18.45;;;2.15;;
12896;SDS011;6516;35.028;32.372;2024-03-06T04:06:11;14.75;;;2.20;;
12896;SDS011;6516;35.028;32.372;2024-03-06T04:08:39;11.32;;;2.25;;
12896;SDS011;6516;35.028;32.372;2024-03-06T04:11:06;16.43;;;2.00;;
12896;SDS011;6516;35.028;32.372;2024-03-06T04:13:35;13.77;;;2.38;;
12896;SDS011;6516;35.028;32.372;2024-03-06T04:16:04;15.90;;;2.20;;
12896;SDS011;6516;35.028;32.372;2024-03-06T04:18:32;14.93;;;1.63;;
12896;SDS011;6516;35.028;32.372;2024-03-06T04:21:01;18.73;;;1.98;;
12896;SDS011;6516;35.028;32.372;2024-03-06T04:23:33;20.43;;;2.47;;
12896;SDS011;6516;35.028;32.372;2024-03-06T04:26:01;18.95;;;2.33;;
12896;SDS011;6516;35.028;32.372;2024-03-06T04:28:31;24.48;;;2.58;;
12896;SDS011;6516;35.028;32.372;2024-03-06T04:30:58;26.92;;;3.63;;
12896;SDS011;6516;35.028;32.372;2024-03-06T04:33:26;20.60;;;2.35;;
12896;SDS011;6516;35.028;32.372;2024-03-06T04:35:54;23.27;;;2.90;;
12896;SDS011;6516;35.028;32.372;2024-03-06T04:38:22;22.20;;;2.78;;
12896;SDS011;6516;35.028;32.372;2024-03-06T04:40:52;18.95;;;2.55;;
12896;SDS011;6516;35.028;32.372;2024-03-06T04:43:20;23.70;;;2.90;;
12896;SDS011;6516;35.028;32.372;2024-03-06T04:45:47;21.08;;;3.10;;
12896;SDS011;6516;35.028;32.372;2024-03-06T04:48:15;25.70;;;3.07;;
12896;SDS011;6516;35.028;32.372;2024-03-06T04:50:43;13.48;;;2.10;;
12896;SDS011;6516;35.028;32.372;2024-03-06T04:53:11;22.40;;;2.97;;
12896;SDS011;6516;35.028;32.372;2024-03-06T04:55:39;18.05;;;2.97;;
12896;SDS011;6516;35.028;32.372;2024-03-06T04:58:08;23.15;;;3.40;;
12896;SDS011;6516;35.028;32.372;2024-03-06T05:00:36;19.30;;;2.60;;
12896;SDS011;6516;35.028;32.372;2024-03-06T05:03:03;21.33;;;2.85;;
12896;SDS011;6516;35.028;32.372;2024-03-06T05:05:31;27.45;;;2.80;;
12896;SDS011;6516;35.028;32.372;2024-03-06T05:07:59;20.42;;;3.17;;
12896;SDS011;6516;35.028;32.372;2024-03-06T05:10:27;19.35;;;3.22;;
12896;SDS011;6516;35.028;32.372;2024-03-06T05:12:54;22.67;;;2.43;;
12896;SDS011;6516;35.028;32.372;2024-03-06T05:15:24;17.77;;;2.00;;
12896;SDS011;6516;35.028;32.372;2024-03-06T05:17:51;19.52;;;2.42;;
12896;SDS011;6516;35.028;32.372;2024-03-06T05:20:21;29.10;;;3.05;;
12896;SDS011;6516;35.028;32.372;2024-03-06T05:22:48;19.00;;;2.80;;
12896;SDS011;6516;35.028;32.372;2024-03-06T05:25:16;19.83;;;2.47;;
12896;SDS011;6516;35.028;32.372;2024-03-06T05:27:44;19.15;;;2.20;;
12896;SDS011;6516;35.028;32.372;2024-03-06T05:30:12;19.48;;;2.63;;
12896;SDS011;6516;35.028;32.372;2024-03-06T05:32:41;27.83;;;2.80;;
12896;SDS011;6516;35.028;32.372;2024-03-06T05:35:09;25.15;;;3.28;;
12896;SDS011;6516;35.028;32.372;2024-03-06T05:37:37;32.00;;;2.93;;
12896;SDS011;6516;35.028;32.372;2024-03-06T05:40:05;25.23;;;2.90;;
12896;SDS011;6516;35.028;32.372;2024-03-06T05:42:34;22.20;;;3.47;;
12896;SDS011;6516;35.028;32.372;2024-03-06T05:45:04;27.80;;;3.42;;
12896;SDS011;6516;35.028;32.372;2024-03-06T05:47:35;26.67;;;4.13;;
12896;SDS011;6516;35.028;32.372;2024-03-06T05:50:05;26.97;;;2.87;;
12896;SDS011;6516;35.028;32.372;2024-03-06T05:52:36;22.50;;;3.20;;
12896;SDS011;6516;35.028;32.372;2024-03-06T05:55:04;28.17;;;3.08;;
12896;SDS011;6516;35.028;32.372;2024-03-06T05:57:33;28.20;;;3.90;;
12896;SDS011;6516;35.028;32.372;2024-03-06T06:00:01;15.50;;;2.22;;
12896;SDS011;6516;35.028;32.372;2024-03-06T06:02:30;12.07;;;2.40;;
12896;SDS011;6516;35.028;32.372;2024-03-06T06:04:58;15.18;;;2.30;;
12896;SDS011;6516;35.028;32.372;2024-03-06T06:07:27;8.68;;;2.15;;
12896;SDS011;6516;35.028;32.372;2024-03-06T06:09:55;9.02;;;1.90;;
12896;SDS011;6516;35.028;32.372;2024-03-06T06:12:22;11.82;;;2.08;;
12896;SDS011;6516;35.028;32.372;2024-03-06T06:14:50;10.07;;;1.80;;
12896;SDS011;6516;35.028;32.372;2024-03-06T06:17:18;14.40;;;2.08;;
12896;SDS011;6516;35.028;32.372;2024-03-06T06:19:45;16.67;;;3.10;;
12896;SDS011;6516;35.028;32.372;2024-03-06T06:22:13;14.00;;;2.60;;
12896;SDS011;6516;35.028;32.372;2024-03-06T06:24:42;16.80;;;2.60;;
12896;SDS011;6516;35.028;32.372;2024-03-06T06:27:11;15.30;;;2.70;;
12896;SDS011;6516;35.028;32.372;2024-03-06T06:29:39;14.75;;;2.38;;
12896;SDS011;6516;35.028;32.372;2024-03-06T06:32:07;14.52;;;2.17;;
12896;SDS011;6516;35.028;32.372;2024-03-06T06:34:34;23.35;;;2.83;;
12896;SDS011;6516;35.028;32.372;2024-03-06T06:37:02;18.65;;;2.42;;
12896;SDS011;6516;35.028;32.372;2024-03-06T06:39:30;11.70;;;2.03;;
12896;SDS011;6516;35.028;32.372;2024-03-06T06:42:01;19.52;;;3.05;;
12896;SDS011;6516;35.028;32.372;2024-03-06T06:44:29;15.32;;;2.28;;
12896;SDS011;6516;35.028;32.372;2024-03-06T06:46:57;22.92;;;3.15;;
12896;SDS011;6516;35.028;32.372;2024-03-06T06:49:25;15.50;;;2.33;;
12896;SDS011;6516;35.028;32.372;2024-03-06T06:51:52;12.47;;;1.93;;
12896;SDS011;6516;35.028;32.372;2024-03-06T06:54:20;14.00;;;3.00;;
12896;SDS011;6516;35.028;32.372;2024-03-06T06:56:48;14.02;;;2.30;;
12896;SDS011;6516;35.028;32.372;2024-03-06T06:59:17;13.50;;;1.90;;
12896;SDS011;6516;35.028;32.372;2024-03-06T07:01:47;16.45;;;3.05;;
12896;SDS011;6516;35.028;32.372;2024-03-06T07:04:15;18.33;;;2.30;;
12896;SDS011;6516;35.028;32.372;2024-03-06T07:06:45;12.18;;;2.10;;
12896;SDS011;6516;35.028;32.372;2024-03-06T07:09:13;15.32;;;2.15;;
12896;SDS011;6516;35.028;32.372;2024-03-06T07:11:41;15.57;;;2.22;;
12896;SDS011;6516;35.028;32.372;2024-03-06T07:14:09;15.35;;;2.30;;
12896;SDS011;6516;35.028;32.372;2024-03-06T07:16:42;14.97;;;2.37;;
12896;SDS011;6516;35.028;32.372;2024-03-06T07:19:10;16.83;;;2.78;;
12896;SDS011;6516;35.028;32.372;2024-03-06T07:21:38;15.85;;;2.47;;
12896;SDS011;6516;35.028;32.372;2024-03-06T07:24:06;17.45;;;2.63;;
12896;SDS011;6516;35.028;32.372;2024-03-06T07:26:34;14.82;;;2.60;;
12896;SDS011;6516;35.028;32.372;2024-03-06T07:29:02;22.33;;;2.90;;
12896;SDS011;6516;35.028;32.372;2024-03-06T07:31:31;17.77;;;2.67;;
12896;SDS011;6516;35.028;32.372;2024-03-06T07:34:01;16.65;;;3.20;;
12896;SDS011;6516;35.028;32.372;2024-03-06T07:36:28;15.77;;;3.40;;
12896;SDS011;6516;35.028;32.372;2024-03-06T07:38:57;20.45;;;3.38;;
12896;SDS011;6516;35.028;32.372;2024-03-06T07:41:25;18.37;;;2.47;;
12896;SDS011;6516;35.028;32.372;2024-03-06T07:43:52;17.00;;;2.67;;
12896;SDS011;6516;35.028;32.372;2024-03-06T07:46:20;16.77;;;2.78;;
12896;SDS011;6516;35.028;32.372;2024-03-06T07:48:48;12.32;;;2.70;;
12896;SDS011;6516;35.028;32.372;2024-03-06T07:51:18;17.30;;;2.40;;
12896;SDS011;6516;35.028;32.372;2024-03-06T07:53:46;17.60;;;3.27;;
12896;SDS011;6516;35.028;32.372;2024-03-06T07:56:15;16.20;;;2.83;;
12896;SDS011;6516;35.028;32.372;2024-03-06T07:58:43;14.18;;;2.30;;
12896;SDS011;6516;35.028;32.372;2024-03-06T08:01:10;15.40;;;2.40;;
12896;SDS011;6516;35.028;32.372;2024-03-06T08:03:38;12.65;;;2.38;;
12896;SDS011;6516;35.028;32.372;2024-03-06T08:06:08;16.30;;;2.30;;
12896;SDS011;6516;35.028;32.372;2024-03-06T08:08:39;18.88;;;2.95;;
12896;SDS011;6516;35.028;32.372;2024-03-06T08:11:09;12.48;;;2.53;;
12896;SDS011;6516;35.028;32.372;2024-03-06T08:13:37;14.32;;;2.28;;
12896;SDS011;6516;35.028;32.372;2024-03-06T08:16:06;18.25;;;2.67;;
12896;SDS011;6516;35.028;32.372;2024-03-06T08:18:34;13.70;;;2.70;;
12896;SDS011;6516;35.028;32.372;2024-03-06T08:21:03;9.60;;;1.90;;
12896;SDS011;6516;35.028;32.372;2024-03-06T08:23:32;13.50;;;2.22;;
12896;SDS011;6516;35.028;32.372;2024-03-06T08:26:01;21.13;;;2.85;;
12896;SDS011;6516;35.028;32.372;2024-03-06T08:28:29;12.80;;;1.85;;
12896;SDS011;6516;35.028;32.372;2024-03-06T08:30:56;17.33;;;2.87;;
12896;SDS011;6516;35.028;32.372;2024-03-06T08:33:24;17.45;;;2.55;;
12896;SDS011;6516;35.028;32.372;2024-03-06T08:35:52;15.88;;;2.63;;
12896;SDS011;6516;35.028;32.372;2024-03-06T08:38:20;17.98;;;2.70;;
12896;SDS011;6516;35.028;32.372;2024-03-06T08:40:48;13.98;;;2.10;;
12896;SDS011;6516;35.028;32.372;2024-03-06T08:43:17;12.23;;;2.50;;
12896;SDS011;6516;35.028;32.372;2024-03-06T08:45:45;15.05;;;2.33;;
12896;SDS011;6516;35.028;32.372;2024-03-06T08:48:13;13.50;;;2.08;;
12896;SDS011;6516;35.028;32.372;2024-03-06T08:50:40;14.00;;;2.10;;
12896;SDS011;6516;35.028;32.372;2024-03-06T08:53:08;13.23;;;2.38;;
12896;SDS011;6516;35.028;32.372;2024-03-06T08:55:36;16.70;;;2.33;;
12896;SDS011;6516;35.028;32.372;2024-03-06T08:58:04;15.38;;;2.35;;
12896;SDS011;6516;35.028;32.372;2024-03-06T09:00:33;13.88;;;2.45;;
12896;SDS011;6516;35.028;32.372;2024-03-06T09:03:02;15.15;;;2.30;;
12896;SDS011;6516;35.028;32.372;2024-03-06T09:05:30;16.73;;;2.58;;
12896;SDS011;6516;35.028;32.372;2024-03-06T09:07:58;14.63;;;2.40;;
12896;SDS011;6516;35.028;32.372;2024-03-06T09:10:26;15.27;;;2.60;;
12896;SDS011;6516;35.028;32.372;2024-03-06T09:12:54;13.75;;;2.00;;
12896;SDS011;6516;35.028;32.372;2024-03-06T09:15:22;13.25;;;2.40;;
12896;SDS011;6516;35.028;32.372;2024-03-06T09:17:52;15.57;;;2.58;;
12896;SDS011;6516;35.028;32.372;2024-03-06T09:20:20;14.77;;;2.83;;
12896;SDS011;6516;35.028;32.372;2024-03-06T09:22:49;19.30;;;2.40;;
12896;SDS011;6516;35.028;32.372;2024-03-06T09:25:22;19.25;;;2.83;;
12896;SDS011;6516;35.028;32.372;2024-03-06T09:27:50;15.45;;;2.22;;
12896;SDS011;6516;35.028;32.372;2024-03-06T09:30:17;14.25;;;1.92;;
12896;SDS011;6516;35.028;32.372;2024-03-06T09:32:45;13.03;;;2.03;;
12896;SDS011;6516;35.028;32.372;2024-03-06T09:35:15;14.02;;;2.03;;
12896;SDS011;6516;35.028;32.372;2024-03-06T09:37:44;16.88;;;2.17;;
12896;SDS011;6516;35.028;32.372;2024-03-06T09:40:19;13.95;;;2.03;;
12896;SDS011;6516;35.028;32.372;2024-03-06T09:42:49;14.23;;;2.65;;
12896;SDS011;6516;35.028;32.372;2024-03-06T09:45:18;12.30;;;1.67;;
12896;SDS011;6516;35.028;32.372;2024-03-06T09:47:47;13.73;;;2.38;;
12896;SDS011;6516;35.028;32.372;2024-03-06T09:50:18;9.90;;;1.60;;
12896;SDS011;6516;35.028;32.372;2024-03-06T09:52:52;12.10;;;1.70;;
12896;SDS011;6516;35.028;32.372;2024-03-06T09:55:21;8.43;;;1.75;;
12896;SDS011;6516;35.028;32.372;2024-03-06T09:57:49;8.50;;;1.50;;
12896;SDS011;6516;35.028;32.372;2024-03-06T10:00:17;9.43;;;1.52;;
12896;SDS011;6516;35.028;32.372;2024-03-06T10:02:48;11.50;;;2.10;;
12896;SDS011;6516;35.028;32.372;2024-03-06T10:05:26;11.02;;;1.85;;
12896;SDS011;6516;35.028;32.372;2024-03-06T10:07:53;8.93;;;1.70;;
12896;SDS011;6516;35.028;32.372;2024-03-06T10:10:21;10.10;;;1.70;;
12896;SDS011;6516;35.028;32.372;2024-03-06T10:12:50;10.00;;;1.67;;
12896;SDS011;6516;35.028;32.372;2024-03-06T10:15:18;10.30;;;1.60;;
12896;SDS011;6516;35.028;32.372;2024-03-06T10:17:46;9.50;;;1.80;;
12896;SDS011;6516;35.028;32.372;2024-03-06T10:20:18;8.80;;;1.98;;
12896;SDS011;6516;35.028;32.372;2024-03-06T10:22:50;10.53;;;1.97;;
12896;SDS011;6516;35.028;32.372;2024-03-06T10:25:19;6.97;;;1.70;;
12896;SDS011;6516;35.028;32.372;2024-03-06T10:28:01;11.13;;;1.75;;
12896;SDS011;6516;35.028;32.372;2024-03-06T10:30:32;10.32;;;1.83;;
12896;SDS011;6516;35.028;32.372;2024-03-06T10:33:01;13.18;;;2.10;;
12896;SDS011;6516;35.028;32.372;2024-03-06T10:35:31;9.63;;;1.93;;
12896;SDS011;6516;35.028;32.372;2024-03-06T10:38:01;11.82;;;2.03;;
12896;SDS011;6516;35.028;32.372;2024-03-06T10:40:30;11.45;;;1.90;;
12896;SDS011;6516;35.028;32.372;2024-03-06T10:43:00;11.55;;;1.70;;
12896;SDS011;6516;35.028;32.372;2024-03-06T10:45:32;10.52;;;2.50;;
12896;SDS011;6516;35.028;32.372;2024-03-06T10:48:08;11.07;;;2.20;;
12896;SDS011;6516;35.028;32.372;2024-03-06T10:50:38;15.75;;;1.92;;
12896;SDS011;6516;35.028;32.372;2024-03-06T10:53:10;10.85;;;1.98;;
12896;SDS011;6516;35.028;32.372;2024-03-06T10:55:40;13.80;;;1.95;;
12896;SDS011;6516;35.028;32.372;2024-03-06T10:58:10;10.35;;;1.65;;
12896;SDS011;6516;35.028;32.372;2024-03-06T11:00:40;9.57;;;1.80;;
12896;SDS011;6516;35.028;32.372;2024-03-06T11:03:09;9.63;;;1.80;;
12896;SDS011;6516;35.028;32.372;2024-03-06T11:05:38;10.77;;;1.77;;
12896;SDS011;6516;35.028;32.372;2024-03-06T11:08:06;7.78;;;1.20;;
12896;SDS011;6516;35.028;32.372;2024-03-06T11:10:36;9.20;;;2.05;;
12896;SDS011;6516;35.028;32.372;2024-03-06T11:13:08;7.70;;;1.67;;
12896;SDS011;6516;35.028;32.372;2024-03-06T11:15:48;9.13;;;1.40;;
12896;SDS011;6516;35.028;32.372;2024-03-06T11:21:28;10.20;;;1.52;;
12896;SDS011;6516;35.028;32.372;2024-03-06T11:24:12;11.50;;;1.90;;
12896;SDS011;6516;35.028;32.372;2024-03-06T11:26:47;15.17;;;2.23;;
12896;SDS011;6516;35.028;32.372;2024-03-06T11:29:27;10.82;;;2.00;;
12896;SDS011;6516;35.028;32.372;2024-03-06T11:32:00;11.32;;;2.10;;
12896;SDS011;6516;35.028;32.372;2024-03-06T11:34:35;8.50;;;1.40;;
12896;SDS011;6516;35.028;32.372;2024-03-06T11:37:03;8.48;;;1.40;;
12896;SDS011;6516;35.028;32.372;2024-03-06T11:39:34;9.47;;;1.50;;
12896;SDS011;6516;35.028;32.372;2024-03-06T11:42:05;6.03;;;1.30;;
12896;SDS011;6516;35.028;32.372;2024-03-06T11:44:35;9.45;;;1.52;;
12896;SDS011;6516;35.028;32.372;2024-03-06T11:47:03;8.15;;;1.20;;
12896;SDS011;6516;35.028;32.372;2024-03-06T11:49:34;7.70;;;1.70;;
12896;SDS011;6516;35.028;32.372;2024-03-06T11:52:03;7.17;;;1.70;;
12896;SDS011;6516;35.028;32.372;2024-03-06T11:54:34;8.13;;;1.35;;
12896;SDS011;6516;35.028;32.372;2024-03-06T11:57:02;7.85;;;2.10;;
12896;SDS011;6516;35.028;32.372;2024-03-06T11:59:33;9.02;;;1.45;;
12896;SDS011;6516;35.028;32.372;2024-03-06T12:02:04;12.10;;;2.00;;
12896;SDS011;6516;35.028;32.372;2024-03-06T12:04:35;9.13;;;1.63;;
12896;SDS011;6516;35.028;32.372;2024-03-06T12:07:04;12.63;;;1.80;;
12896;SDS011;6516;35.028;32.372;2024-03-06T12:09:32;11.55;;;1.83;;
12896;SDS011;6516;35.028;32.372;2024-03-06T12:12:01;10.05;;;1.67;;
12896;SDS011;6516;35.028;32.372;2024-03-06T12:14:30;11.45;;;1.67;;
12896;SDS011;6516;35.028;32.372;2024-03-06T12:16:58;10.57;;;1.80;;
12896;SDS011;6516;35.028;32.372;2024-03-06T12:19:31;6.70;;;1.38;;
12896;SDS011;6516;35.028;32.372;2024-03-06T12:21:59;11.00;;;1.63;;
12896;SDS011;6516;35.028;32.372;2024-03-06T12:24:28;8.27;;;1.55;;
12896;SDS011;6516;35.028;32.372;2024-03-06T12:26:59;8.52;;;1.40;;
12896;SDS011;6516;35.028;32.372;2024-03-06T12:29:28;8.43;;;1.47;;
12896;SDS011;6516;35.028;32.372;2024-03-06T12:31:59;11.40;;;1.42;;
12896;SDS011;6516;35.028;32.372;2024-03-06T12:34:27;7.70;;;1.48;;
12896;SDS011;6516;35.028;32.372;2024-03-06T12:36:56;7.47;;;1.55;;
12896;SDS011;6516;35.028;32.372;2024-03-06T12:39:36;9.50;;;1.58;;
12896;SDS011;6516;35.028;32.372;2024-03-06T12:42:04;11.50;;;1.50;;
12896;SDS011;6516;35.028;32.372;2024-03-06T12:44:33;9.23;;;1.58;;
12896;SDS011;6516;35.028;32.372;2024-03-06T12:47:01;10.05;;;1.58;;
12896;SDS011;6516;35.028;32.372;2024-03-06T12:49:29;10.50;;;1.60;;
12896;SDS011;6516;35.028;32.372;2024-03-06T12:51:58;7.18;;;1.45;;
12896;SDS011;6516;35.028;32.372;2024-03-06T12:54:25;9.20;;;1.60;;
12896;SDS011;6516;35.028;32.372;2024-03-06T12:56:53;10.20;;;1.85;;
12896;SDS011;6516;35.028;32.372;2024-03-06T12:59:22;7.40;;;1.33;;
12896;SDS011;6516;35.028;32.372;2024-03-06T13:01:51;7.40;;;1.67;;
12896;SDS011;6516;35.028;32.372;2024-03-06T13:04:19;7.72;;;1.50;;
12896;SDS011;6516;35.028;32.372;2024-03-06T13:06:47;12.77;;;1.53;;
12896;SDS011;6516;35.028;32.372;2024-03-06T13:09:15;6.93;;;1.40;;
12896;SDS011;6516;35.028;32.372;2024-03-06T13:11:43;6.57;;;1.40;;
12896;SDS011;6516;35.028;32.372;2024-03-06T13:14:11;7.50;;;1.10;;
12896;SDS011;6516;35.028;32.372;2024-03-06T13:16:39;11.23;;;1.40;;
12896;SDS011;6516;35.028;32.372;2024-03-06T13:19:08;7.93;;;1.07;;
12896;SDS011;6516;35.028;32.372;2024-03-06T13:21:36;7.40;;;1.10;;
12896;SDS011;6516;35.028;32.372;2024-03-06T13:24:04;4.93;;;1.17;;
12896;SDS011;6516;35.028;32.372;2024-03-06T13:26:32;8.43;;;1.10;;
12896;SDS011;6516;35.028;32.372;2024-03-06T13:29:03;7.25;;;1.35;;
12896;SDS011;6516;35.028;32.372;2024-03-06T13:31:31;6.77;;;1.20;;
12896;SDS011;6516;35.028;32.372;2024-03-06T13:33:59;6.50;;;1.45;;
12896;SDS011;6516;35.028;32.372;2024-03-06T13:36:30;7.35;;;1.30;;
12896;SDS011;6516;35.028;32.372;2024-03-06T13:38:58;9.95;;;1.50;;
12896;SDS011;6516;35.028;32.372;2024-03-06T13:41:26;6.68;;;1.02;;
12896;SDS011;6516;35.028;32.372;2024-03-06T13:43:55;5.17;;;1.30;;
12896;SDS011;6516;35.028;32.372;2024-03-06T13:46:22;6.70;;;1.40;;
12896;SDS011;6516;35.028;32.372;2024-03-06T13:48:50;7.05;;;1.20;;
12896;SDS011;6516;35.028;32.372;2024-03-06T13:51:18;6.63;;;1.27;;
12896;SDS011;6516;35.028;32.372;2024-03-06T13:53:47;5.55;;;1.27;;
12896;SDS011;6516;35.028;32.372;2024-03-06T13:56:15;9.83;;;1.30;;
12896;SDS011;6516;35.028;32.372;2024-03-06T13:58:43;8.95;;;1.30;;
12896;SDS011;6516;35.028;32.372;2024-03-06T14:01:11;7.25;;;1.20;;
12896;SDS011;6516;35.028;32.372;2024-03-06T14:03:39;6.28;;;1.20;;
12896;SDS011;6516;35.028;32.372;2024-03-06T14:06:07;6.55;;;1.75;;
12896;SDS011;6516;35.028;32.372;2024-03-06T14:08:35;9.03;;;1.30;;
12896;SDS011;6516;35.028;32.372;2024-03-06T14:11:09;5.07;;;1.15;;
12896;SDS011;6516;35.028;32.372;2024-03-06T14:13:37;10.02;;;1.30;;
12896;SDS011;6516;35.028;32.372;2024-03-06T14:16:05;7.35;;;1.33;;
12896;SDS011;6516;35.028;32.372;2024-03-06T14:18:33;7.75;;;1.30;;
12896;SDS011;6516;35.028;32.372;2024-03-06T14:21:00;7.00;;;1.13;;
12896;SDS011;6516;35.028;32.372;2024-03-06T14:23:28;5.60;;;1.23;;
12896;SDS011;6516;35.028;32.372;2024-03-06T14:25:57;6.30;;;1.27;;
12896;SDS011;6516;35.028;32.372;2024-03-06T14:28:28;6.03;;;1.10;;
12896;SDS011;6516;35.028;32.372;2024-03-06T14:30:56;8.23;;;1.50;;
12896;SDS011;6516;35.028;32.372;2024-03-06T14:33:23;4.53;;;1.13;;
12896;SDS011;6516;35.028;32.372;2024-03-06T14:35:52;7.38;;;1.30;;
12896;SDS011;6516;35.028;32.372;2024-03-06T14:38:20;7.82;;;1.27;;
12896;SDS011;6516;35.028;32.372;2024-03-06T14:40:48;4.32;;;0.98;;
12896;SDS011;6516;35.028;32.372;2024-03-06T14:43:15;7.80;;;1.67;;
12896;SDS011;6516;35.028;32.372;2024-03-06T14:45:46;5.80;;;1.00;;
12896;SDS011;6516;35.028;32.372;2024-03-06T14:48:14;7.78;;;1.30;;
12896;SDS011;6516;35.028;32.372;2024-03-06T14:50:42;9.18;;;1.50;;